KAMA/AMA METAR and TAF weather

Enter ICAO airport designator
Station Type Date Time Source
KAMA METAR 2020/04/06 09:08 UTC NOAA

KAMA 060908Z 19021KT 10SM FEW011 13/12 A2989 RMK AO2 PK WND 19027/0854 T01330117


Station Type Date Time Source
KAMA Decoded METAR 2020/04/06 09:08 UTC NOAA

AMARILLO INTERNATIONAL AIRPORT, TX, United States (KAMA) 35-13N 101-43W 1093M
Apr 06, 2020 - 05:08 AM EDT / 2020.04.06 0908 UTC
Wind: from the S (190 degrees) at 24 MPH (21 KT):0
Visibility: 10 mile(s):0
Sky conditions: mostly clear
Temperature: 55.9 F (13.3 C)
Dew Point: 53.1 F (11.7 C)
Relative Humidity: 90%
Pressure (altimeter): 29.89 in. Hg (1012 hPa)
ob: KAMA 060908Z 19021KT 10SM FEW011 13/12 A2989 RMK AO2 PK WND 19027/0854 T01330117
cycle: 9

Station Type Date Time Source
KAMA TAF 2020/04/06 09:06 UTC NOAA

TAF
AMD KAMA 060905Z 0609/0706 20016KT P6SM BKN250
TEMPO 0610/0614 P6SM OVC006
FM061600 21017G26KT P6SM BKN250
FM070100 18013KT P6SM SCT250

Example: see airport list